sensor_id;sensor_type;location;lat;lon;timestamp;P1;durP1;ratioP1;P2;durP2;ratioP2
23826;SDS011;12094;50.822;4.376;2023-07-09T00:01:15;12.55;;;7.75;;
23826;SDS011;12094;50.822;4.376;2023-07-09T00:03:44;14.55;;;8.18;;
23826;SDS011;12094;50.822;4.376;2023-07-09T00:06:12;15.38;;;8.07;;
23826;SDS011;12094;50.822;4.376;2023-07-09T00:08:42;12.32;;;8.38;;
23826;SDS011;12094;50.822;4.376;2023-07-09T00:11:10;13.93;;;8.35;;
23826;SDS011;12094;50.822;4.376;2023-07-09T00:13:38;18.42;;;8.32;;
23826;SDS011;12094;50.822;4.376;2023-07-09T00:16:11;13.13;;;8.27;;
23826;SDS011;12094;50.822;4.376;2023-07-09T00:18:41;12.55;;;8.23;;
23826;SDS011;12094;50.822;4.376;2023-07-09T00:21:09;13.23;;;7.88;;
23826;SDS011;12094;50.822;4.376;2023-07-09T00:23:36;14.95;;;7.60;;
23826;SDS011;12094;50.822;4.376;2023-07-09T00:26:09;11.43;;;7.82;;
23826;SDS011;12094;50.822;4.376;2023-07-09T00:28:40;12.30;;;8.07;;
23826;SDS011;12094;50.822;4.376;2023-07-09T00:31:11;12.85;;;8.27;;
23826;SDS011;12094;50.822;4.376;2023-07-09T00:33:44;13.20;;;7.43;;
23826;SDS011;12094;50.822;4.376;2023-07-09T00:36:14;11.45;;;7.85;;
23826;SDS011;12094;50.822;4.376;2023-07-09T00:38:44;12.90;;;7.65;;
23826;SDS011;12094;50.822;4.376;2023-07-09T00:41:15;16.30;;;8.10;;
23826;SDS011;12094;50.822;4.376;2023-07-09T00:43:46;14.10;;;7.90;;
23826;SDS011;12094;50.822;4.376;2023-07-09T00:48:53;14.55;;;8.30;;
23826;SDS011;12094;50.822;4.376;2023-07-09T00:51:26;15.50;;;8.55;;
23826;SDS011;12094;50.822;4.376;2023-07-09T00:53:58;13.45;;;7.63;;
23826;SDS011;12094;50.822;4.376;2023-07-09T00:56:36;13.35;;;8.68;;
23826;SDS011;12094;50.822;4.376;2023-07-09T00:59:08;9.75;;;7.63;;
23826;SDS011;12094;50.822;4.376;2023-07-09T01:01:41;13.02;;;8.27;;
23826;SDS011;12094;50.822;4.376;2023-07-09T01:04:10;13.55;;;8.10;;
23826;SDS011;12094;50.822;4.376;2023-07-09T01:06:45;12.63;;;7.43;;
23826;SDS011;12094;50.822;4.376;2023-07-09T01:09:15;14.10;;;8.23;;
23826;SDS011;12094;50.822;4.376;2023-07-09T01:11:44;13.10;;;7.40;;
23826;SDS011;12094;50.822;4.376;2023-07-09T01:14:13;15.30;;;8.13;;
23826;SDS011;12094;50.822;4.376;2023-07-09T01:16:53;12.13;;;8.23;;
23826;SDS011;12094;50.822;4.376;2023-07-09T01:19:29;13.05;;;7.95;;
23826;SDS011;12094;50.822;4.376;2023-07-09T01:22:10;16.20;;;7.80;;
23826;SDS011;12094;50.822;4.376;2023-07-09T01:25:01;15.13;;;7.95;;
23826;SDS011;12094;50.822;4.376;2023-07-09T01:27:37;16.75;;;7.60;;
23826;SDS011;12094;50.822;4.376;2023-07-09T01:30:20;14.60;;;7.72;;
23826;SDS011;12094;50.822;4.376;2023-07-09T01:32:51;11.95;;;7.55;;
23826;SDS011;12094;50.822;4.376;2023-07-09T01:35:22;14.45;;;8.70;;
23826;SDS011;12094;50.822;4.376;2023-07-09T01:40:27;13.32;;;7.43;;
23826;SDS011;12094;50.822;4.376;2023-07-09T01:43:00;14.43;;;7.43;;
23826;SDS011;12094;50.822;4.376;2023-07-09T01:45:28;11.65;;;7.63;;
23826;SDS011;12094;50.822;4.376;2023-07-09T01:47:55;15.13;;;7.15;;
23826;SDS011;12094;50.822;4.376;2023-07-09T01:50:24;12.90;;;7.65;;
23826;SDS011;12094;50.822;4.376;2023-07-09T01:52:55;21.00;;;7.55;;
23826;SDS011;12094;50.822;4.376;2023-07-09T01:55:24;11.38;;;7.15;;
23826;SDS011;12094;50.822;4.376;2023-07-09T01:57:52;10.93;;;7.25;;
23826;SDS011;12094;50.822;4.376;2023-07-09T02:00:20;11.13;;;7.10;;
23826;SDS011;12094;50.822;4.376;2023-07-09T02:02:48;11.35;;;7.25;;
23826;SDS011;12094;50.822;4.376;2023-07-09T02:05:19;16.08;;;7.32;;
23826;SDS011;12094;50.822;4.376;2023-07-09T02:07:47;11.43;;;6.93;;
23826;SDS011;12094;50.822;4.376;2023-07-09T02:10:15;12.05;;;6.90;;
23826;SDS011;12094;50.822;4.376;2023-07-09T02:12:44;13.77;;;6.75;;
23826;SDS011;12094;50.822;4.376;2023-07-09T02:15:11;10.45;;;6.88;;
23826;SDS011;12094;50.822;4.376;2023-07-09T02:17:39;16.52;;;7.07;;
23826;SDS011;12094;50.822;4.376;2023-07-09T02:20:06;12.68;;;6.88;;
23826;SDS011;12094;50.822;4.376;2023-07-09T02:22:35;13.07;;;6.43;;
23826;SDS011;12094;50.822;4.376;2023-07-09T02:25:03;13.45;;;6.75;;
23826;SDS011;12094;50.822;4.376;2023-07-09T02:27:32;10.10;;;6.63;;
23826;SDS011;12094;50.822;4.376;2023-07-09T02:30:00;11.25;;;6.53;;
23826;SDS011;12094;50.822;4.376;2023-07-09T02:32:28;13.27;;;5.72;;
23826;SDS011;12094;50.822;4.376;2023-07-09T02:34:55;11.25;;;6.20;;
23826;SDS011;12094;50.822;4.376;2023-07-09T02:37:24;11.23;;;6.13;;
23826;SDS011;12094;50.822;4.376;2023-07-09T02:39:52;12.13;;;6.57;;
23826;SDS011;12094;50.822;4.376;2023-07-09T02:42:20;12.70;;;6.55;;
23826;SDS011;12094;50.822;4.376;2023-07-09T02:44:49;13.38;;;6.63;;
23826;SDS011;12094;50.822;4.376;2023-07-09T02:47:21;15.80;;;5.93;;
23826;SDS011;12094;50.822;4.376;2023-07-09T02:49:49;11.38;;;5.82;;
23826;SDS011;12094;50.822;4.376;2023-07-09T02:52:17;10.80;;;6.35;;
23826;SDS011;12094;50.822;4.376;2023-07-09T02:54:44;8.35;;;6.00;;
23826;SDS011;12094;50.822;4.376;2023-07-09T02:57:12;15.48;;;6.32;;
23826;SDS011;12094;50.822;4.376;2023-07-09T02:59:39;10.07;;;6.05;;
23826;SDS011;12094;50.822;4.376;2023-07-09T03:02:06;12.82;;;5.88;;
23826;SDS011;12094;50.822;4.376;2023-07-09T03:04:34;11.15;;;6.00;;
23826;SDS011;12094;50.822;4.376;2023-07-09T03:07:01;13.32;;;6.22;;
23826;SDS011;12094;50.822;4.376;2023-07-09T03:09:28;9.27;;;6.22;;
23826;SDS011;12094;50.822;4.376;2023-07-09T03:11:55;8.80;;;5.63;;
23826;SDS011;12094;50.822;4.376;2023-07-09T03:14:26;13.80;;;6.60;;
23826;SDS011;12094;50.822;4.376;2023-07-09T03:16:53;9.80;;;6.10;;
23826;SDS011;12094;50.822;4.376;2023-07-09T03:19:20;10.75;;;5.82;;
23826;SDS011;12094;50.822;4.376;2023-07-09T03:21:49;8.57;;;5.63;;
23826;SDS011;12094;50.822;4.376;2023-07-09T03:24:16;9.25;;;5.57;;
23826;SDS011;12094;50.822;4.376;2023-07-09T03:26:47;10.25;;;5.85;;
23826;SDS011;12094;50.822;4.376;2023-07-09T03:29:14;11.55;;;6.25;;
23826;SDS011;12094;50.822;4.376;2023-07-09T03:31:42;15.32;;;5.80;;
23826;SDS011;12094;50.822;4.376;2023-07-09T03:34:09;8.75;;;5.38;;
23826;SDS011;12094;50.822;4.376;2023-07-09T03:36:37;10.02;;;5.63;;
23826;SDS011;12094;50.822;4.376;2023-07-09T03:39:04;10.70;;;5.97;;
23826;SDS011;12094;50.822;4.376;2023-07-09T03:41:32;14.52;;;5.43;;
23826;SDS011;12094;50.822;4.376;2023-07-09T03:44:00;9.80;;;5.78;;
23826;SDS011;12094;50.822;4.376;2023-07-09T03:46:27;10.52;;;5.97;;
23826;SDS011;12094;50.822;4.376;2023-07-09T03:48:54;9.02;;;5.55;;
23826;SDS011;12094;50.822;4.376;2023-07-09T03:51:21;11.65;;;6.03;;
23826;SDS011;12094;50.822;4.376;2023-07-09T03:53:49;9.02;;;5.70;;
23826;SDS011;12094;50.822;4.376;2023-07-09T03:56:16;15.95;;;5.85;;
23826;SDS011;12094;50.822;4.376;2023-07-09T03:58:44;16.25;;;6.05;;
23826;SDS011;12094;50.822;4.376;2023-07-09T04:01:10;12.13;;;6.47;;
23826;SDS011;12094;50.822;4.376;2023-07-09T04:03:38;11.30;;;6.10;;
23826;SDS011;12094;50.822;4.376;2023-07-09T04:06:05;10.20;;;6.47;;
23826;SDS011;12094;50.822;4.376;2023-07-09T04:08:32;12.75;;;6.75;;
23826;SDS011;12094;50.822;4.376;2023-07-09T04:10:59;14.48;;;7.47;;
23826;SDS011;12094;50.822;4.376;2023-07-09T04:13:27;16.13;;;9.80;;
23826;SDS011;12094;50.822;4.376;2023-07-09T04:15:56;14.15;;;7.28;;
23826;SDS011;12094;50.822;4.376;2023-07-09T04:18:24;14.18;;;6.57;;
23826;SDS011;12094;50.822;4.376;2023-07-09T04:20:52;12.70;;;7.28;;
23826;SDS011;12094;50.822;4.376;2023-07-09T04:23:19;16.83;;;7.38;;
23826;SDS011;12094;50.822;4.376;2023-07-09T04:25:47;10.43;;;6.40;;
23826;SDS011;12094;50.822;4.376;2023-07-09T04:28:15;12.48;;;6.57;;
23826;SDS011;12094;50.822;4.376;2023-07-09T04:30:47;11.77;;;7.35;;
23826;SDS011;12094;50.822;4.376;2023-07-09T04:33:19;12.07;;;6.50;;
23826;SDS011;12094;50.822;4.376;2023-07-09T04:35:50;12.77;;;6.53;;
23826;SDS011;12094;50.822;4.376;2023-07-09T04:38:18;13.40;;;7.28;;
23826;SDS011;12094;50.822;4.376;2023-07-09T04:40:48;12.98;;;7.55;;
23826;SDS011;12094;50.822;4.376;2023-07-09T04:43:16;13.65;;;7.22;;
23826;SDS011;12094;50.822;4.376;2023-07-09T04:45:43;13.35;;;7.28;;
23826;SDS011;12094;50.822;4.376;2023-07-09T04:48:11;20.00;;;7.65;;
23826;SDS011;12094;50.822;4.376;2023-07-09T04:50:42;13.65;;;6.95;;
23826;SDS011;12094;50.822;4.376;2023-07-09T04:55:38;14.00;;;7.20;;
23826;SDS011;12094;50.822;4.376;2023-07-09T04:58:06;13.95;;;7.53;;
23826;SDS011;12094;50.822;4.376;2023-07-09T05:00:34;16.48;;;7.47;;
23826;SDS011;12094;50.822;4.376;2023-07-09T05:08:22;18.65;;;7.47;;
23826;SDS011;12094;50.822;4.376;2023-07-09T05:10:50;13.90;;;7.07;;
23826;SDS011;12094;50.822;4.376;2023-07-09T05:13:18;14.75;;;7.20;;
23826;SDS011;12094;50.822;4.376;2023-07-09T05:15:46;15.23;;;7.40;;
23826;SDS011;12094;50.822;4.376;2023-07-09T05:18:16;12.30;;;6.70;;
23826;SDS011;12094;50.822;4.376;2023-07-09T05:20:43;14.93;;;7.55;;
23826;SDS011;12094;50.822;4.376;2023-07-09T05:23:12;13.43;;;7.20;;
23826;SDS011;12094;50.822;4.376;2023-07-09T05:25:40;16.30;;;6.82;;
23826;SDS011;12094;50.822;4.376;2023-07-09T05:28:07;19.27;;;7.45;;
23826;SDS011;12094;50.822;4.376;2023-07-09T05:30:34;12.32;;;6.20;;
23826;SDS011;12094;50.822;4.376;2023-07-09T05:33:02;12.32;;;6.78;;
23826;SDS011;12094;50.822;4.376;2023-07-09T05:35:29;12.10;;;6.00;;
23826;SDS011;12094;50.822;4.376;2023-07-09T05:37:57;10.68;;;6.53;;
23826;SDS011;12094;50.822;4.376;2023-07-09T05:40:24;16.83;;;6.18;;
23826;SDS011;12094;50.822;4.376;2023-07-09T05:42:52;11.60;;;6.03;;
23826;SDS011;12094;50.822;4.376;2023-07-09T05:45:20;10.80;;;5.72;;
23826;SDS011;12094;50.822;4.376;2023-07-09T05:47:49;15.07;;;6.65;;
23826;SDS011;12094;50.822;4.376;2023-07-09T05:50:16;13.15;;;6.07;;
23826;SDS011;12094;50.822;4.376;2023-07-09T05:52:43;11.77;;;6.53;;
23826;SDS011;12094;50.822;4.376;2023-07-09T05:55:10;12.65;;;7.38;;
23826;SDS011;12094;50.822;4.376;2023-07-09T05:57:38;16.42;;;6.32;;
23826;SDS011;12094;50.822;4.376;2023-07-09T06:02:41;10.88;;;6.57;;
23826;SDS011;12094;50.822;4.376;2023-07-09T06:05:10;11.60;;;6.30;;
23826;SDS011;12094;50.822;4.376;2023-07-09T06:07:38;10.70;;;6.50;;
23826;SDS011;12094;50.822;4.376;2023-07-09T06:10:06;18.77;;;7.32;;
23826;SDS011;12094;50.822;4.376;2023-07-09T06:12:34;13.20;;;6.75;;
23826;SDS011;12094;50.822;4.376;2023-07-09T06:15:02;12.43;;;7.25;;
23826;SDS011;12094;50.822;4.376;2023-07-09T06:17:30;14.80;;;7.45;;
23826;SDS011;12094;50.822;4.376;2023-07-09T06:20:00;14.43;;;7.32;;
23826;SDS011;12094;50.822;4.376;2023-07-09T06:22:27;12.35;;;7.70;;
23826;SDS011;12094;50.822;4.376;2023-07-09T06:24:56;17.33;;;7.95;;
23826;SDS011;12094;50.822;4.376;2023-07-09T06:27:23;13.07;;;8.57;;
23826;SDS011;12094;50.822;4.376;2023-07-09T06:29:50;15.05;;;7.57;;
23826;SDS011;12094;50.822;4.376;2023-07-09T06:32:17;20.55;;;7.53;;
23826;SDS011;12094;50.822;4.376;2023-07-09T06:34:46;15.00;;;7.65;;
23826;SDS011;12094;50.822;4.376;2023-07-09T06:37:13;14.38;;;7.57;;
23826;SDS011;12094;50.822;4.376;2023-07-09T06:39:41;16.00;;;7.93;;
23826;SDS011;12094;50.822;4.376;2023-07-09T06:42:09;16.33;;;7.85;;
23826;SDS011;12094;50.822;4.376;2023-07-09T06:44:59;14.77;;;7.57;;
23826;SDS011;12094;50.822;4.376;2023-07-09T06:47:27;26.67;;;8.32;;
23826;SDS011;12094;50.822;4.376;2023-07-09T06:49:55;14.02;;;7.80;;
23826;SDS011;12094;50.822;4.376;2023-07-09T06:52:22;14.63;;;8.23;;
23826;SDS011;12094;50.822;4.376;2023-07-09T06:54:50;12.38;;;7.93;;
23826;SDS011;12094;50.822;4.376;2023-07-09T06:57:19;16.20;;;8.98;;
23826;SDS011;12094;50.822;4.376;2023-07-09T06:59:52;15.75;;;8.88;;
23826;SDS011;12094;50.822;4.376;2023-07-09T07:02:22;17.10;;;9.45;;
23826;SDS011;12094;50.822;4.376;2023-07-09T07:04:49;18.63;;;9.98;;
23826;SDS011;12094;50.822;4.376;2023-07-09T07:07:19;19.75;;;10.18;;
23826;SDS011;12094;50.822;4.376;2023-07-09T07:09:46;18.92;;;12.30;;
23826;SDS011;12094;50.822;4.376;2023-07-09T07:12:26;23.13;;;13.23;;
23826;SDS011;12094;50.822;4.376;2023-07-09T07:14:55;25.48;;;16.00;;
23826;SDS011;12094;50.822;4.376;2023-07-09T07:17:25;23.83;;;15.10;;
23826;SDS011;12094;50.822;4.376;2023-07-09T07:19:52;33.10;;;21.27;;
23826;SDS011;12094;50.822;4.376;2023-07-09T07:22:19;33.78;;;22.00;;
23826;SDS011;12094;50.822;4.376;2023-07-09T07:24:48;33.17;;;23.20;;
23826;SDS011;12094;50.822;4.376;2023-07-09T07:27:15;33.72;;;21.50;;
23826;SDS011;12094;50.822;4.376;2023-07-09T07:29:42;33.88;;;22.55;;
23826;SDS011;12094;50.822;4.376;2023-07-09T07:32:09;35.53;;;24.13;;
23826;SDS011;12094;50.822;4.376;2023-07-09T07:34:36;38.90;;;26.20;;
23826;SDS011;12094;50.822;4.376;2023-07-09T07:37:03;38.58;;;29.63;;
23826;SDS011;12094;50.822;4.376;2023-07-09T07:39:31;38.58;;;27.02;;
23826;SDS011;12094;50.822;4.376;2023-07-09T07:41:58;42.42;;;29.70;;
23826;SDS011;12094;50.822;4.376;2023-07-09T07:44:26;41.88;;;30.35;;
23826;SDS011;12094;50.822;4.376;2023-07-09T07:46:53;44.05;;;30.52;;
23826;SDS011;12094;50.822;4.376;2023-07-09T07:49:21;44.67;;;29.85;;
23826;SDS011;12094;50.822;4.376;2023-07-09T07:51:48;41.88;;;29.73;;
23826;SDS011;12094;50.822;4.376;2023-07-09T07:54:16;44.03;;;32.00;;
23826;SDS011;12094;50.822;4.376;2023-07-09T07:56:45;46.08;;;32.50;;
23826;SDS011;12094;50.822;4.376;2023-07-09T07:59:12;43.38;;;30.45;;
23826;SDS011;12094;50.822;4.376;2023-07-09T08:01:41;39.78;;;29.65;;
23826;SDS011;12094;50.822;4.376;2023-07-09T08:04:08;44.00;;;30.75;;
23826;SDS011;12094;50.822;4.376;2023-07-09T08:06:36;48.08;;;33.78;;
23826;SDS011;12094;50.822;4.376;2023-07-09T08:09:05;50.35;;;32.13;;
23826;SDS011;12094;50.822;4.376;2023-07-09T08:11:33;46.30;;;33.42;;
23826;SDS011;12094;50.822;4.376;2023-07-09T08:14:01;54.60;;;32.50;;
23826;SDS011;12094;50.822;4.376;2023-07-09T08:16:29;52.17;;;30.60;;
23826;SDS011;12094;50.822;4.376;2023-07-09T08:18:57;45.85;;;32.88;;
23826;SDS011;12094;50.822;4.376;2023-07-09T08:21:25;49.78;;;32.00;;
23826;SDS011;12094;50.822;4.376;2023-07-09T08:23:52;53.85;;;33.85;;
23826;SDS011;12094;50.822;4.376;2023-07-09T08:26:18;48.80;;;34.65;;
23826;SDS011;12094;50.822;4.376;2023-07-09T08:28:48;49.53;;;31.95;;
23826;SDS011;12094;50.822;4.376;2023-07-09T08:31:16;47.72;;;30.48;;
23826;SDS011;12094;50.822;4.376;2023-07-09T08:33:43;45.53;;;32.40;;
23826;SDS011;12094;50.822;4.376;2023-07-09T08:36:10;46.05;;;31.95;;
23826;SDS011;12094;50.822;4.376;2023-07-09T08:38:38;43.10;;;30.25;;
23826;SDS011;12094;50.822;4.376;2023-07-09T08:47:46;46.50;;;28.15;;
23826;SDS011;12094;50.822;4.376;2023-07-09T08:50:09;40.55;;;27.65;;
23826;SDS011;12094;50.822;4.376;2023-07-09T08:52:43;44.35;;;28.30;;
23826;SDS011;12094;50.822;4.376;2023-07-09T08:55:17;41.97;;;28.10;;
23826;SDS011;12094;50.822;4.376;2023-07-09T08:57:52;41.75;;;28.75;;
23826;SDS011;12094;50.822;4.376;2023-07-09T09:00:34;44.20;;;25.42;;
23826;SDS011;12094;50.822;4.376;2023-07-09T09:03:57;37.80;;;25.17;;
23826;SDS011;12094;50.822;4.376;2023-07-09T09:06:17;40.05;;;25.52;;
23826;SDS011;12094;50.822;4.376;2023-07-09T09:11:29;33.60;;;23.13;;
23826;SDS011;12094;50.822;4.376;2023-07-09T09:13:59;35.28;;;23.25;;
23826;SDS011;12094;50.822;4.376;2023-07-09T09:16:33;39.63;;;25.75;;
23826;SDS011;12094;50.822;4.376;2023-07-09T09:19:13;35.33;;;22.92;;
23826;SDS011;12094;50.822;4.376;2023-07-09T09:26:56;35.22;;;23.52;;
23826;SDS011;12094;50.822;4.376;2023-07-09T09:29:28;36.35;;;23.92;;
23826;SDS011;12094;50.822;4.376;2023-07-09T09:31:56;33.00;;;23.40;;
23826;SDS011;12094;50.822;4.376;2023-07-09T09:34:28;37.70;;;24.80;;
23826;SDS011;12094;50.822;4.376;2023-07-09T09:36:57;38.47;;;24.65;;
23826;SDS011;12094;50.822;4.376;2023-07-09T09:39:28;41.25;;;27.98;;
23826;SDS011;12094;50.822;4.376;2023-07-09T09:42:09;37.78;;;25.80;;
23826;SDS011;12094;50.822;4.376;2023-07-09T09:44:42;32.95;;;22.40;;
23826;SDS011;12094;50.822;4.376;2023-07-09T09:47:11;32.13;;;22.80;;
23826;SDS011;12094;50.822;4.376;2023-07-09T09:49:39;34.47;;;20.88;;
23826;SDS011;12094;50.822;4.376;2023-07-09T09:52:12;32.67;;;21.60;;
23826;SDS011;12094;50.822;4.376;2023-07-09T09:54:46;38.10;;;23.38;;
23826;SDS011;12094;50.822;4.376;2023-07-09T09:57:19;34.25;;;24.20;;
23826;SDS011;12094;50.822;4.376;2023-07-09T10:02:24;122.50;;;87.53;;
23826;SDS011;12094;50.822;4.376;2023-07-09T10:07:30;34.03;;;25.60;;
23826;SDS011;12094;50.822;4.376;2023-07-09T10:10:02;35.67;;;23.33;;
23826;SDS011;12094;50.822;4.376;2023-07-09T10:12:40;39.03;;;24.88;;
23826;SDS011;12094;50.822;4.376;2023-07-09T10:15:29;33.28;;;22.90;;
23826;SDS011;12094;50.822;4.376;2023-07-09T10:19:02;35.13;;;20.50;;
23826;SDS011;12094;50.822;4.376;2023-07-09T10:26:47;31.35;;;20.55;;
23826;SDS011;12094;50.822;4.376;2023-07-09T10:29:37;27.75;;;17.67;;
23826;SDS011;12094;50.822;4.376;2023-07-09T10:35:09;26.13;;;17.33;;
23826;SDS011;12094;50.822;4.376;2023-07-09T10:40:45;25.98;;;17.70;;
23826;SDS011;12094;50.822;4.376;2023-07-09T10:46:31;25.23;;;16.25;;
23826;SDS011;12094;50.822;4.376;2023-07-09T10:49:03;24.35;;;14.45;;
23826;SDS011;12094;50.822;4.376;2023-07-09T10:51:37;25.55;;;16.60;;
23826;SDS011;12094;50.822;4.376;2023-07-09T10:54:53;27.85;;;18.05;;
23826;SDS011;12094;50.822;4.376;2023-07-09T10:57:05;29.77;;;18.88;;
23826;SDS011;12094;50.822;4.376;2023-07-09T10:59:40;28.02;;;18.95;;
23826;SDS011;12094;50.822;4.376;2023-07-09T11:02:23;47.00;;;36.22;;
23826;SDS011;12094;50.822;4.376;2023-07-09T11:04:57;25.98;;;19.23;;
23826;SDS011;12094;50.822;4.376;2023-07-09T11:07:39;26.13;;;19.13;;
23826;SDS011;12094;50.822;4.376;2023-07-09T11:18:23;35.65;;;24.85;;
23826;SDS011;12094;50.822;4.376;2023-07-09T11:20:59;18.88;;;10.52;;
23826;SDS011;12094;50.822;4.376;2023-07-09T11:23:49;14.30;;;9.25;;
23826;SDS011;12094;50.822;4.376;2023-07-09T11:31:38;22.05;;;8.00;;
23826;SDS011;12094;50.822;4.376;2023-07-09T11:36:46;11.98;;;7.45;;
23826;SDS011;12094;50.822;4.376;2023-07-09T11:41:46;11.43;;;6.82;;
23826;SDS011;12094;50.822;4.376;2023-07-09T11:44:14;14.40;;;6.90;;
23826;SDS011;12094;50.822;4.376;2023-07-09T11:52:24;20.50;;;9.50;;
23826;SDS011;12094;50.822;4.376;2023-07-09T11:57:56;18.63;;;8.07;;
23826;SDS011;12094;50.822;4.376;2023-07-09T12:00:39;12.95;;;6.70;;
23826;SDS011;12094;50.822;4.376;2023-07-09T12:03:28;12.25;;;6.07;;
23826;SDS011;12094;50.822;4.376;2023-07-09T12:06:05;14.85;;;7.38;;
23826;SDS011;12094;50.822;4.376;2023-07-09T12:08:40;13.82;;;7.20;;
23826;SDS011;12094;50.822;4.376;2023-07-09T12:11:19;10.25;;;6.00;;
23826;SDS011;12094;50.822;4.376;2023-07-09T12:13:49;9.40;;;6.00;;
23826;SDS011;12094;50.822;4.376;2023-07-09T12:18:52;11.27;;;6.20;;
23826;SDS011;12094;50.822;4.376;2023-07-09T12:21:21;11.23;;;6.60;;
23826;SDS011;12094;50.822;4.376;2023-07-09T12:23:49;12.73;;;6.22;;
23826;SDS011;12094;50.822;4.376;2023-07-09T12:26:18;15.68;;;8.15;;
23826;SDS011;12094;50.822;4.376;2023-07-09T12:28:50;13.88;;;7.80;;
23826;SDS011;12094;50.822;4.376;2023-07-09T12:31:18;16.95;;;8.73;;
23826;SDS011;12094;50.822;4.376;2023-07-09T12:33:52;16.23;;;8.90;;
23826;SDS011;12094;50.822;4.376;2023-07-09T12:36:22;20.67;;;9.77;;
23826;SDS011;12094;50.822;4.376;2023-07-09T12:38:51;20.23;;;10.82;;
23826;SDS011;12094;50.822;4.376;2023-07-09T12:41:29;21.98;;;11.88;;
23826;SDS011;12094;50.822;4.376;2023-07-09T12:44:02;20.85;;;11.45;;
23826;SDS011;12094;50.822;4.376;2023-07-09T12:46:29;19.08;;;10.55;;
23826;SDS011;12094;50.822;4.376;2023-07-09T12:48:57;22.58;;;11.82;;
23826;SDS011;12094;50.822;4.376;2023-07-09T12:51:28;17.17;;;10.70;;
23826;SDS011;12094;50.822;4.376;2023-07-09T12:54:16;22.45;;;11.57;;
23826;SDS011;12094;50.822;4.376;2023-07-09T12:56:47;20.67;;;11.05;;
23826;SDS011;12094;50.822;4.376;2023-07-09T12:59:26;14.60;;;11.18;;
23826;SDS011;12094;50.822;4.376;2023-07-09T13:04:34;20.13;;;11.40;;
23826;SDS011;12094;50.822;4.376;2023-07-09T13:07:18;19.95;;;11.98;;
23826;SDS011;12094;50.822;4.376;2023-07-09T13:09:52;19.42;;;11.23;;
23826;SDS011;12094;50.822;4.376;2023-07-09T13:12:22;18.83;;;11.52;;
23826;SDS011;12094;50.822;4.376;2023-07-09T13:15:00;17.05;;;12.10;;
23826;SDS011;12094;50.822;4.376;2023-07-09T13:17:29;18.92;;;12.00;;
23826;SDS011;12094;50.822;4.376;2023-07-09T13:19:57;14.63;;;10.77;;
23826;SDS011;12094;50.822;4.376;2023-07-09T13:22:27;21.95;;;12.05;;
23826;SDS011;12094;50.822;4.376;2023-07-09T13:27:25;18.13;;;12.15;;
23826;SDS011;12094;50.822;4.376;2023-07-09T13:29:52;18.30;;;10.95;;
23826;SDS011;12094;50.822;4.376;2023-07-09T13:32:19;16.05;;;12.23;;
23826;SDS011;12094;50.822;4.376;2023-07-09T13:34:46;15.70;;;10.85;;
23826;SDS011;12094;50.822;4.376;2023-07-09T13:37:14;17.65;;;11.68;;
23826;SDS011;12094;50.822;4.376;2023-07-09T13:39:43;16.48;;;10.95;;
23826;SDS011;12094;50.822;4.376;2023-07-09T13:42:12;17.38;;;11.52;;
23826;SDS011;12094;50.822;4.376;2023-07-09T13:44:43;68.72;;;50.70;;
23826;SDS011;12094;50.822;4.376;2023-07-09T13:47:12;17.38;;;12.02;;
23826;SDS011;12094;50.822;4.376;2023-07-09T13:49:45;18.23;;;11.32;;
23826;SDS011;12094;50.822;4.376;2023-07-09T13:52:18;17.77;;;11.40;;
23826;SDS011;12094;50.822;4.376;2023-07-09T13:54:49;20.60;;;11.20;;
23826;SDS011;12094;50.822;4.376;2023-07-09T13:57:18;18.48;;;10.52;;
23826;SDS011;12094;50.822;4.376;2023-07-09T13:59:48;19.17;;;9.98;;
23826;SDS011;12094;50.822;4.376;2023-07-09T14:02:23;17.65;;;10.43;;
23826;SDS011;12094;50.822;4.376;2023-07-09T14:07:30;15.73;;;8.18;;
23826;SDS011;12094;50.822;4.376;2023-07-09T14:09:59;16.67;;;7.43;;
23826;SDS011;12094;50.822;4.376;2023-07-09T14:12:27;16.20;;;7.25;;
23826;SDS011;12094;50.822;4.376;2023-07-09T14:14:56;15.68;;;8.15;;
23826;SDS011;12094;50.822;4.376;2023-07-09T14:17:26;12.98;;;7.22;;
23826;SDS011;12094;50.822;4.376;2023-07-09T14:19:54;11.07;;;8.02;;
23826;SDS011;12094;50.822;4.376;2023-07-09T14:22:32;14.25;;;7.93;;
23826;SDS011;12094;50.822;4.376;2023-07-09T14:25:03;13.93;;;7.10;;
23826;SDS011;12094;50.822;4.376;2023-07-09T14:27:32;14.80;;;7.35;;
23826;SDS011;12094;50.822;4.376;2023-07-09T14:29:58;14.48;;;6.82;;
23826;SDS011;12094;50.822;4.376;2023-07-09T14:35:02;15.32;;;7.63;;
23826;SDS011;12094;50.822;4.376;2023-07-09T14:37:36;10.18;;;6.45;;
23826;SDS011;12094;50.822;4.376;2023-07-09T14:40:03;13.15;;;6.90;;
23826;SDS011;12094;50.822;4.376;2023-07-09T14:42:31;10.93;;;6.90;;
23826;SDS011;12094;50.822;4.376;2023-07-09T14:44:58;8.77;;;6.45;;
23826;SDS011;12094;50.822;4.376;2023-07-09T14:47:26;12.15;;;5.88;;
23826;SDS011;12094;50.822;4.376;2023-07-09T14:49:54;13.32;;;7.10;;
23826;SDS011;12094;50.822;4.376;2023-07-09T14:52:21;11.10;;;6.30;;
23826;SDS011;12094;50.822;4.376;2023-07-09T14:54:49;8.48;;;5.90;;
23826;SDS011;12094;50.822;4.376;2023-07-09T14:57:19;10.73;;;6.65;;
23826;SDS011;12094;50.822;4.376;2023-07-09T14:59:48;13.40;;;7.30;;
23826;SDS011;12094;50.822;4.376;2023-07-09T15:05:04;9.23;;;6.30;;
23826;SDS011;12094;50.822;4.376;2023-07-09T15:07:39;10.07;;;6.25;;
23826;SDS011;12094;50.822;4.376;2023-07-09T15:10:06;14.07;;;6.78;;
23826;SDS011;12094;50.822;4.376;2023-07-09T15:12:35;9.43;;;6.25;;
23826;SDS011;12094;50.822;4.376;2023-07-09T15:15:11;10.45;;;6.30;;
23826;SDS011;12094;50.822;4.376;2023-07-09T15:17:50;11.55;;;6.65;;
23826;SDS011;12094;50.822;4.376;2023-07-09T15:20:18;11.70;;;7.35;;
23826;SDS011;12094;50.822;4.376;2023-07-09T15:22:48;11.02;;;7.10;;
23826;SDS011;12094;50.822;4.376;2023-07-09T15:25:22;10.98;;;6.90;;
23826;SDS011;12094;50.822;4.376;2023-07-09T15:27:50;12.40;;;7.35;;
23826;SDS011;12094;50.822;4.376;2023-07-09T15:30:22;12.93;;;7.78;;
23826;SDS011;12094;50.822;4.376;2023-07-09T15:32:51;11.82;;;7.63;;
23826;SDS011;12094;50.822;4.376;2023-07-09T15:35:21;10.27;;;6.95;;
23826;SDS011;12094;50.822;4.376;2023-07-09T15:37:48;10.55;;;7.43;;
23826;SDS011;12094;50.822;4.376;2023-07-09T15:40:19;13.65;;;7.65;;
23826;SDS011;12094;50.822;4.376;2023-07-09T15:42:53;9.70;;;6.75;;
23826;SDS011;12094;50.822;4.376;2023-07-09T15:45:21;14.15;;;6.90;;
23826;SDS011;12094;50.822;4.376;2023-07-09T15:47:50;12.65;;;7.00;;
23826;SDS011;12094;50.822;4.376;2023-07-09T15:50:27;10.13;;;6.63;;
23826;SDS011;12094;50.822;4.376;2023-07-09T15:52:54;10.73;;;6.30;;
23826;SDS011;12094;50.822;4.376;2023-07-09T15:55:22;10.93;;;6.82;;
23826;SDS011;12094;50.822;4.376;2023-07-09T15:57:51;8.55;;;6.13;;
23826;SDS011;12094;50.822;4.376;2023-07-09T16:00:26;11.07;;;6.95;;
23826;SDS011;12094;50.822;4.376;2023-07-09T16:02:54;10.70;;;6.35;;
23826;SDS011;12094;50.822;4.376;2023-07-09T16:05:42;11.25;;;5.72;;
23826;SDS011;12094;50.822;4.376;2023-07-09T16:08:10;10.35;;;6.28;;
23826;SDS011;12094;50.822;4.376;2023-07-09T16:10:38;10.27;;;6.45;;
23826;SDS011;12094;50.822;4.376;2023-07-09T16:13:12;13.13;;;6.50;;
23826;SDS011;12094;50.822;4.376;2023-07-09T16:15:47;13.23;;;6.72;;
23826;SDS011;12094;50.822;4.376;2023-07-09T16:18:15;14.60;;;6.43;;
23826;SDS011;12094;50.822;4.376;2023-07-09T16:20:43;10.45;;;5.90;;
23826;SDS011;12094;50.822;4.376;2023-07-09T16:23:15;14.35;;;7.13;;